Weather at Austin Executive Airport

Public forecast

Using degrees Fahrenheit for public forecast. Weather courtesy of forecast.io.

Current aviation weather report (METAR) for Austin Executive Airport

2024/05/29 20:35 (retrieved 8 minutes ago)

KEDC 292035Z AUTO 06003KT 9SM BKN049 OVC065 31/21 A2997 RMK AO2

Closest aviation forecast (TAF) to Austin Executive Airport

Closest forecast is Austin Bergstrom International Airport, 13.0 nm (24.1 km) SSW.

2024/05/29 18:30 (retrieved 2 hours ago)

TAF KAUS 291728Z 2918/3024 10007KT P6SM SCT050 FM300700 16005KT P6SM OVC011 FM301700 14009KT P6SM SCT050